createdAt,value
2018-03-24T00:04:39.595Z,4.50
2018-03-24T00:09:43.469Z,4.30
2018-03-24T00:14:47.693Z,4.40
2018-03-24T00:19:50.803Z,4.30
2018-03-24T00:24:54.298Z,4.20
2018-03-24T00:29:57.792Z,4.20
2018-03-24T00:35:01.279Z,4.00
2018-03-24T00:40:05.978Z,4.00
2018-03-24T00:50:13.507Z,3.90
2018-03-24T00:55:17.361Z,3.80
2018-03-24T01:05:24.961Z,3.80
2018-03-24T01:15:32.909Z,3.80
2018-03-24T01:25:41.242Z,3.70
2018-03-24T01:30:44.328Z,3.70
2018-03-24T01:35:48.570Z,3.60
2018-03-24T01:40:51.664Z,3.50
2018-03-24T01:45:56.489Z,3.50
2018-03-24T01:51:00.737Z,3.50
2018-03-24T01:56:03.810Z,3.50
2018-03-24T02:01:08.025Z,3.40
2018-03-24T02:06:11.120Z,3.50
2018-03-24T02:11:14.235Z,3.50
2018-03-24T02:16:17.343Z,3.40
2018-03-24T02:21:23.878Z,3.30
2018-03-24T02:26:27.725Z,3.30
2018-03-24T02:31:31.253Z,3.20
2018-03-24T02:46:43.355Z,3.00
2018-03-24T02:56:53.195Z,2.90
2018-03-24T03:01:57.071Z,2.90
2018-03-24T03:07:00.160Z,3.00
2018-03-24T03:12:03.267Z,3.10
2018-03-24T03:17:07.120Z,3.00
2018-03-24T03:22:10.208Z,3.00
2018-03-24T03:27:13.297Z,3.00
2018-03-24T03:37:23.437Z,3.00
2018-03-24T03:42:27.312Z,2.90
2018-03-24T03:47:30.414Z,2.90
2018-03-24T03:52:34.249Z,3.00
2018-03-24T04:02:41.770Z,3.10
2018-03-24T04:17:54.554Z,3.10
2018-03-24T04:22:58.427Z,3.10
2018-03-24T04:28:02.657Z,3.00
2018-03-24T04:33:07.696Z,3.00
2018-03-24T04:38:11.948Z,3.00
2018-03-24T04:43:15.061Z,2.90
2018-03-24T04:48:18.921Z,3.00
2018-03-24T04:53:22.022Z,3.00
2018-03-24T04:58:25.878Z,3.10
2018-03-24T05:03:29.348Z,3.10
2018-03-24T05:13:36.882Z,3.10
2018-03-24T05:18:40.749Z,3.10
2018-03-24T05:23:43.846Z,3.20
2018-03-24T05:28:46.976Z,3.20
2018-03-24T05:33:50.122Z,3.30
2018-03-24T05:38:53.202Z,3.30
2018-03-24T05:43:57.820Z,3.30
2018-03-24T05:49:02.424Z,3.40
2018-03-24T05:54:06.665Z,3.40
2018-03-24T05:59:10.610Z,3.40
2018-03-24T06:04:13.712Z,3.40
2018-03-24T06:14:21.251Z,3.80
2018-03-24T06:19:25.837Z,4.00
2018-03-24T06:29:33.848Z,5.00
2018-03-24T06:34:37.929Z,5.10
2018-03-24T06:39:41.845Z,5.30
2018-03-24T06:44:44.956Z,5.60
2018-03-24T06:49:48.867Z,5.70
2018-03-24T06:54:52.984Z,5.80
2018-03-24T06:59:56.546Z,5.90
2018-03-24T07:05:00.848Z,6.10
2018-03-24T07:10:04.774Z,6.20
2018-03-24T07:15:07.939Z,6.50
2018-03-24T07:20:11.049Z,6.80
2018-03-24T07:25:14.913Z,7.10
2018-03-24T07:30:18.003Z,7.50
2018-03-24T07:35:21.851Z,7.70
2018-03-24T07:40:26.079Z,8.10
2018-03-24T07:45:29.193Z,8.90
2018-03-24T07:50:32.317Z,9.20
2018-03-24T07:55:35.423Z,10.30
2018-03-24T08:05:44.126Z,10.00
2018-03-24T08:15:52.080Z,11.50
2018-03-24T08:20:55.580Z,12.10
2018-03-24T08:25:59.076Z,12.10
2018-03-24T08:31:02.178Z,11.10
2018-03-24T08:36:05.268Z,10.80
2018-03-24T08:41:09.145Z,11.00
2018-03-24T08:51:18.756Z,11.80
2018-03-24T08:56:22.626Z,12.30
2018-03-24T09:01:25.729Z,11.90
2018-03-24T09:06:28.829Z,12.30
2018-03-24T09:11:31.921Z,11.30
2018-03-24T09:16:35.065Z,11.60
2018-03-24T09:31:48.192Z,12.40
2018-03-24T09:36:51.704Z,12.20
2018-03-24T09:41:54.802Z,13.10
2018-03-24T09:57:07.564Z,12.30
2018-03-24T10:07:15.877Z,12.10
2018-03-24T10:12:19.382Z,12.10
2018-03-24T10:17:23.617Z,11.50
2018-03-24T10:28:10.481Z,11.40
2018-03-24T10:33:13.561Z,11.70
2018-03-24T10:38:16.648Z,11.90
2018-03-24T10:43:26.102Z,11.60
2018-03-24T10:53:34.822Z,12.30
2018-03-24T10:58:39.411Z,12.60
2018-03-24T11:03:42.908Z,13.00
2018-03-24T11:08:46.780Z,12.80
2018-03-24T11:13:49.880Z,12.90
2018-03-24T11:29:02.332Z,11.60
2018-03-24T11:34:05.445Z,11.80
2018-03-24T11:39:08.554Z,11.70
2018-03-24T11:44:11.666Z,11.10
2018-03-24T11:49:14.764Z,11.20
2018-03-24T11:59:34.174Z,11.70
2018-03-24T12:09:43.223Z,11.30
2018-03-24T12:14:46.317Z,11.10
2018-03-24T12:24:54.271Z,11.30
2018-03-24T12:35:02.936Z,11.20
2018-03-24T12:40:06.790Z,11.40
2018-03-24T12:45:11.020Z,11.70
2018-03-24T12:50:14.124Z,12.20
2018-03-24T12:55:17.209Z,12.20
2018-03-24T13:00:21.452Z,11.80
2018-03-24T13:10:30.490Z,11.80
2018-03-24T13:15:33.981Z,11.70
2018-03-24T13:20:37.078Z,11.80
2018-03-24T13:25:40.574Z,11.90
2018-03-24T13:30:44.411Z,11.50
2018-03-24T13:35:48.272Z,11.50
2018-03-24T13:40:52.112Z,11.40
2018-03-24T13:45:55.212Z,11.30
2018-03-24T13:50:58.700Z,11.50
2018-03-24T13:56:02.564Z,11.60
2018-03-24T14:01:07.160Z,11.70
2018-03-24T14:11:15.464Z,11.60
2018-03-24T14:16:18.549Z,11.60
2018-03-24T14:21:22.776Z,11.70
2018-03-24T14:26:27.013Z,11.90
2018-03-24T14:31:31.607Z,11.90
2018-03-24T14:36:34.710Z,12.00
2018-03-24T14:46:43.009Z,12.00
2018-03-24T14:51:46.497Z,12.00
2018-03-24T14:56:50.353Z,12.10
2018-03-24T15:01:53.843Z,12.10
2018-03-24T15:06:56.929Z,12.10
2018-03-24T15:17:05.960Z,12.10
2018-03-24T15:27:13.879Z,12.10
2018-03-24T15:32:34.763Z,12.20
2018-03-24T15:37:37.831Z,12.20
2018-03-24T15:42:41.306Z,12.20
2018-03-24T15:47:45.175Z,12.10
2018-03-24T16:02:57.909Z,12.10
2018-03-24T16:08:02.141Z,12.00
2018-03-24T16:23:14.098Z,11.90
2018-03-24T16:28:17.957Z,12.00
2018-03-24T16:33:21.459Z,12.00
2018-03-24T16:43:28.984Z,11.70
2018-03-24T16:48:33.589Z,11.60
2018-03-24T16:53:36.670Z,11.50
2018-03-24T16:58:41.267Z,11.40
2018-03-24T17:08:49.190Z,11.20
2018-03-24T17:13:52.282Z,11.10
2018-03-24T17:24:00.447Z,10.80
2018-03-24T17:29:03.540Z,10.70
2018-03-24T17:39:11.844Z,10.40
2018-03-24T17:44:14.940Z,10.30
2018-03-24T17:49:19.160Z,10.10
2018-03-24T17:54:22.648Z,10.00
2018-03-24T17:59:25.753Z,9.90
2018-03-24T18:04:28.841Z,9.80
2018-03-24T18:09:32.668Z,9.60
2018-03-24T18:14:36.137Z,9.40
2018-03-24T18:24:43.640Z,9.20
2018-03-24T18:29:46.716Z,9.10
2018-03-24T18:34:50.708Z,9.00
2018-03-24T18:44:58.245Z,8.70
2018-03-24T18:55:06.176Z,8.50
2018-03-24T19:00:09.672Z,8.40
2018-03-24T19:05:13.904Z,8.30
2018-03-24T19:10:17.382Z,8.30
2018-03-24T19:20:24.912Z,8.00
2018-03-24T19:25:29.508Z,7.90
2018-03-24T19:30:32.982Z,7.80
2018-03-24T19:45:46.102Z,7.50
2018-03-24T19:55:54.012Z,7.30
2018-03-24T20:00:57.096Z,7.30
2018-03-24T20:11:05.036Z,7.10
2018-03-24T20:21:12.555Z,7.00
2018-03-24T20:26:15.648Z,6.90
2018-03-24T20:31:18.724Z,6.80
2018-03-24T20:36:22.576Z,6.70
2018-03-24T20:41:25.660Z,6.60
2018-03-24T20:46:28.752Z,6.50
2018-03-24T20:51:32.986Z,6.40
2018-03-24T21:01:41.299Z,6.10
2018-03-24T21:06:45.800Z,6.10
2018-03-24T21:21:57.722Z,5.90
2018-03-24T21:27:01.192Z,5.90
2018-03-24T21:42:14.294Z,6.00
2018-03-24T21:47:18.523Z,6.10
2018-03-24T21:52:23.492Z,5.90
2018-03-24T22:02:32.529Z,5.70
2018-03-24T22:07:35.629Z,5.50
2018-03-24T22:12:38.713Z,5.20
2018-03-24T22:17:42.187Z,5.00
2018-03-24T22:22:46.053Z,4.80
2018-03-24T22:27:50.530Z,4.70
2018-03-24T22:32:54.388Z,4.70
2018-03-24T22:37:58.240Z,4.60
2018-03-24T22:43:01.339Z,4.40
2018-03-24T22:48:05.475Z,4.30
2018-03-24T22:53:09.328Z,4.20
2018-03-24T23:03:17.604Z,4.10
2018-03-24T23:08:20.677Z,3.90
2018-03-24T23:18:28.763Z,3.90
2018-03-24T23:23:32.603Z,3.70
2018-03-24T23:28:36.074Z,3.70
2018-03-24T23:33:39.194Z,3.70
2018-03-24T23:38:42.260Z,3.70
2018-03-24T23:43:46.095Z,3.60
2018-03-24T23:48:50.700Z,3.50
2018-03-24T23:53:54.164Z,3.30
2018-03-24T23:58:57.249Z,3.20
